createdAt,value
2023-01-08T00:01:30.718Z,71.30
2023-01-08T00:03:32.479Z,81.53
2023-01-08T00:05:34.040Z,81.28
2023-01-08T00:07:35.563Z,85.45
2023-01-08T00:09:37.109Z,83.70
2023-01-08T00:11:39.116Z,92.53
2023-01-08T00:13:40.916Z,89.05
2023-01-08T00:15:42.412Z,72.18
2023-01-08T00:17:43.994Z,87.55
2023-01-08T00:19:45.548Z,56.58
2023-01-08T00:21:47.142Z,63.97
2023-01-08T00:23:48.796Z,73.13
2023-01-08T00:25:51.024Z,84.88
2023-01-08T00:27:52.539Z,82.47
2023-01-08T00:29:54.055Z,69.72
2023-01-08T00:31:55.681Z,89.88
2023-01-08T00:33:57.278Z,83.03
2023-01-08T00:35:58.861Z,74.45
2023-01-08T00:38:00.374Z,91.40
2023-01-08T00:40:01.954Z,101.65
2023-01-08T00:42:03.609Z,131.07
2023-01-08T00:44:05.248Z,101.07
2023-01-08T00:46:07.558Z,64.40
2023-01-08T00:48:09.731Z,80.40
2023-01-08T00:50:11.567Z,75.53
2023-01-08T00:52:13.208Z,76.20
2023-01-08T00:54:14.836Z,99.95
2023-01-08T00:56:16.388Z,101.30
2023-01-08T00:58:17.943Z,95.72
2023-01-08T01:00:19.488Z,71.22
2023-01-08T01:02:21.101Z,68.05
2023-01-08T01:04:22.779Z,68.15
2023-01-08T01:06:24.551Z,71.20
2023-01-08T01:08:26.054Z,77.13
2023-01-08T01:10:27.570Z,62.80
2023-01-08T01:12:29.227Z,88.43
2023-01-08T01:14:30.723Z,78.85
2023-01-08T01:16:32.358Z,72.50
2023-01-08T01:18:33.949Z,83.45
2023-01-08T01:20:35.484Z,81.63
2023-01-08T01:22:38.453Z,70.05
2023-01-08T01:24:40.041Z,72.60
2023-01-08T01:26:41.944Z,70.10
2023-01-08T01:28:43.794Z,75.65
2023-01-08T01:30:45.371Z,70.60
2023-01-08T01:32:46.945Z,74.45
2023-01-08T01:34:48.535Z,89.07
2023-01-08T01:36:50.047Z,64.53
2023-01-08T01:38:54.247Z,66.07
2023-01-08T01:40:55.973Z,87.93
2023-01-08T01:42:57.453Z,77.22
2023-01-08T01:44:59.581Z,70.72
2023-01-08T01:47:05.964Z,69.68
2023-01-08T01:49:13.688Z,75.82
2023-01-08T01:51:15.334Z,70.30
2023-01-08T01:53:26.206Z,81.45
2023-01-08T01:55:28.291Z,95.78
2023-01-08T01:57:31.221Z,98.07
2023-01-08T01:59:32.780Z,70.50
2023-01-08T02:01:34.971Z,57.88
2023-01-08T02:03:39.217Z,89.72
2023-01-08T02:06:23.885Z,77.25
2023-01-08T02:08:42.356Z,56.70
2023-01-08T02:11:02.639Z,66.43
2023-01-08T02:13:17.732Z,70.78
2023-01-08T02:15:32.340Z,71.90
2023-01-08T02:17:48.211Z,56.90
2023-01-08T02:20:17.999Z,60.75
2023-01-08T02:22:51.914Z,67.28
2023-01-08T02:25:01.564Z,66.97
2023-01-08T02:29:22.374Z,74.07
2023-01-08T02:31:26.380Z,62.42
2023-01-08T02:33:29.529Z,71.85
2023-01-08T02:35:41.422Z,72.68
2023-01-08T02:37:43.482Z,78.45
2023-01-08T02:40:02.714Z,72.30
2023-01-08T02:42:15.358Z,69.53
2023-01-08T02:44:23.149Z,79.32
2023-01-08T02:46:29.751Z,69.95
2023-01-08T02:48:51.368Z,73.15
2023-01-08T02:50:55.666Z,68.68
2023-01-08T02:53:20.479Z,61.42
2023-01-08T02:55:25.134Z,60.15
2023-01-08T02:57:28.996Z,63.58
2023-01-08T02:59:32.604Z,70.47
2023-01-08T03:01:35.394Z,67.68
2023-01-08T03:03:39.121Z,64.22
2023-01-08T03:05:43.564Z,66.40
2023-01-08T03:07:45.200Z,66.50
2023-01-08T03:09:47.332Z,64.53
2023-01-08T03:11:55.017Z,75.85
2023-01-08T03:14:09.681Z,78.95
2023-01-08T03:16:26.136Z,83.82
2023-01-08T03:18:34.349Z,70.88
2023-01-08T03:20:37.919Z,70.93
2023-01-08T03:22:41.812Z,65.95
2023-01-08T03:24:46.214Z,62.92
2023-01-08T03:26:51.960Z,59.20
2023-01-08T03:28:55.490Z,62.42
2023-01-08T03:30:59.190Z,58.75
2023-01-08T03:33:02.402Z,59.50
2023-01-08T03:35:07.082Z,62.03
2023-01-08T03:37:11.463Z,62.08
2023-01-08T03:39:24.346Z,62.95
2023-01-08T03:41:29.820Z,62.80
2023-01-08T03:43:31.379Z,69.78
2023-01-08T03:45:33.219Z,75.03
2023-01-08T03:47:36.496Z,72.13
2023-01-08T03:49:40.218Z,65.25
2023-01-08T03:51:45.421Z,61.92
2023-01-08T03:53:47.791Z,60.38
2023-01-08T03:55:49.385Z,70.50
2023-01-08T03:57:50.934Z,60.97
2023-01-08T03:59:52.641Z,61.22
2023-01-08T04:01:54.257Z,64.22
2023-01-08T04:03:55.860Z,59.28
2023-01-08T04:05:59.854Z,55.42
2023-01-08T04:08:01.359Z,57.83
2023-01-08T04:10:03.369Z,60.63
2023-01-08T04:12:05.101Z,56.70
2023-01-08T04:14:06.609Z,60.05
2023-01-08T04:16:08.428Z,53.90
2023-01-08T04:18:09.961Z,58.67
2023-01-08T04:20:11.787Z,59.80
2023-01-08T04:22:13.510Z,60.17
2023-01-08T04:24:15.141Z,55.05
2023-01-08T04:26:16.653Z,55.47
2023-01-08T04:28:18.555Z,58.88
2023-01-08T04:30:20.106Z,61.33
2023-01-08T04:32:21.793Z,54.40
2023-01-08T04:34:23.375Z,51.90
2023-01-08T04:36:24.948Z,54.70
2023-01-08T04:38:26.543Z,50.72
2023-01-08T04:40:28.134Z,48.33
2023-01-08T04:42:29.677Z,50.42
2023-01-08T04:44:31.435Z,57.83
2023-01-08T04:46:33.007Z,50.70
2023-01-08T04:48:35.176Z,53.58
2023-01-08T04:50:36.644Z,54.97
2023-01-08T04:52:38.248Z,45.47
2023-01-08T04:54:39.783Z,39.40
2023-01-08T04:56:41.357Z,44.13
2023-01-08T04:58:42.864Z,38.55
2023-01-08T05:00:44.394Z,49.28
2023-01-08T05:02:46.137Z,49.47
2023-01-08T05:04:48.361Z,63.50
2023-01-08T05:06:49.870Z,59.90
2023-01-08T05:08:51.689Z,63.40
2023-01-08T05:10:53.164Z,63.55
2023-01-08T05:12:59.849Z,59.67
2023-01-08T05:15:01.351Z,62.20
2023-01-08T05:17:02.882Z,53.13
2023-01-08T05:19:04.479Z,57.70
2023-01-08T05:21:06.240Z,53.97
2023-01-08T05:23:07.783Z,52.10
2023-01-08T05:25:09.542Z,56.10
2023-01-08T05:27:11.095Z,54.35
2023-01-08T05:29:12.684Z,50.30
2023-01-08T05:31:15.574Z,37.65
2023-01-08T05:33:17.217Z,35.60
2023-01-08T05:35:18.831Z,39.25
2023-01-08T05:37:20.345Z,42.75
2023-01-08T05:39:21.842Z,47.47
2023-01-08T05:41:23.459Z,50.88
2023-01-08T05:43:25.067Z,42.17
2023-01-08T05:45:26.929Z,39.03
2023-01-08T05:47:32.583Z,47.20
2023-01-08T05:49:34.208Z,44.80
2023-01-08T05:51:35.719Z,41.65
2023-01-08T05:53:37.356Z,36.58
2023-01-08T05:55:38.852Z,34.95
2023-01-08T05:57:40.420Z,48.78
2023-01-08T05:59:41.945Z,52.08
2023-01-08T06:01:43.567Z,49.83
2023-01-08T06:03:45.213Z,55.53
2023-01-08T06:05:46.738Z,43.03
2023-01-08T06:07:48.264Z,45.58
2023-01-08T06:09:49.833Z,44.30
2023-01-08T06:11:53.109Z,37.58
2023-01-08T06:13:54.649Z,45.47
2023-01-08T06:15:59.453Z,39.92
2023-01-08T06:18:04.825Z,46.92
2023-01-08T06:20:06.765Z,45.53
2023-01-08T06:22:08.259Z,38.13
2023-01-08T06:24:09.858Z,42.17
2023-01-08T06:26:11.403Z,39.75
2023-01-08T06:28:12.981Z,40.30
2023-01-08T06:30:14.524Z,37.17
2023-01-08T06:32:16.194Z,32.00
2023-01-08T06:34:17.805Z,46.25
2023-01-08T06:36:19.306Z,42.40
2023-01-08T06:38:21.005Z,38.25
2023-01-08T06:40:23.707Z,37.03
2023-01-08T06:42:25.229Z,27.75
2023-01-08T06:44:26.920Z,36.15
2023-01-08T06:46:28.523Z,36.72
2023-01-08T06:48:30.116Z,42.63
2023-01-08T06:50:32.740Z,50.38
2023-01-08T06:52:34.271Z,47.97
2023-01-08T06:54:35.773Z,41.47
2023-01-08T06:56:52.381Z,50.17
2023-01-08T06:58:54.692Z,43.47
2023-01-08T07:00:56.398Z,44.75
2023-01-08T07:02:58.052Z,44.13
2023-01-08T07:04:59.579Z,29.42
2023-01-08T07:07:01.097Z,26.45
2023-01-08T07:09:02.648Z,31.00
2023-01-08T07:11:04.734Z,37.42
2023-01-08T07:13:07.980Z,36.85
2023-01-08T07:15:09.846Z,18.63
2023-01-08T07:17:11.410Z,14.48
2023-01-08T07:19:13.765Z,30.65
2023-01-08T07:21:16.249Z,18.23
2023-01-08T07:23:18.100Z,33.42
2023-01-08T07:25:19.646Z,41.75
2023-01-08T07:27:21.916Z,25.90
2023-01-08T07:29:32.482Z,39.35
2023-01-08T07:31:36.094Z,28.90
2023-01-08T07:33:37.822Z,29.00
2023-01-08T07:35:39.710Z,24.33
2023-01-08T07:37:42.159Z,34.05
2023-01-08T07:39:43.730Z,28.67
2023-01-08T07:41:54.097Z,29.73
2023-01-08T07:43:55.929Z,24.17
2023-01-08T07:45:57.888Z,16.02
2023-01-08T07:47:59.939Z,23.23
2023-01-08T07:50:01.455Z,22.73
2023-01-08T07:52:03.000Z,27.05
2023-01-08T07:54:04.725Z,35.00
2023-01-08T07:56:11.198Z,32.42
2023-01-08T07:58:14.709Z,36.60
2023-01-08T08:00:16.729Z,34.00
2023-01-08T08:02:18.454Z,43.17
2023-01-08T08:04:28.853Z,35.90
2023-01-08T08:06:50.909Z,28.30
2023-01-08T08:08:57.334Z,34.40
2023-01-08T08:10:59.106Z,28.85
2023-01-08T08:13:00.623Z,30.70
2023-01-08T08:15:02.150Z,24.58
2023-01-08T08:17:03.719Z,21.92
2023-01-08T08:19:05.280Z,32.20
2023-01-08T08:21:07.682Z,23.55
2023-01-08T08:23:13.795Z,31.45
2023-01-08T08:25:15.480Z,25.27
2023-01-08T08:27:16.996Z,31.17
2023-01-08T08:29:18.490Z,27.65
2023-01-08T08:31:29.431Z,39.28
2023-01-08T08:35:59.335Z,24.77
2023-01-08T08:38:01.231Z,29.38
2023-01-08T08:40:02.889Z,28.33
2023-01-08T08:42:04.583Z,31.23
2023-01-08T08:44:06.321Z,30.33
2023-01-08T08:46:07.869Z,34.60
2023-01-08T08:48:09.842Z,28.75
2023-01-08T08:50:11.368Z,28.05
2023-01-08T08:52:12.910Z,31.05
2023-01-08T08:54:14.431Z,31.45
2023-01-08T08:56:15.952Z,35.65
2023-01-08T08:58:32.356Z,29.85
2023-01-08T09:00:42.929Z,29.02
2023-01-08T09:02:44.773Z,25.33
2023-01-08T09:04:46.392Z,32.05
2023-01-08T09:06:47.904Z,22.15
2023-01-08T09:08:49.546Z,18.67
2023-01-08T09:10:53.895Z,30.95
2023-01-08T09:13:07.320Z,67.25
2023-01-08T09:15:22.262Z,46.35
2023-01-08T09:17:25.950Z,34.92
2023-01-08T09:19:27.702Z,101.57
2023-01-08T09:21:29.296Z,59.03
2023-01-08T09:23:30.807Z,187.05
2023-01-08T09:25:32.502Z,35.55
2023-01-08T09:27:46.144Z,41.50
2023-01-08T09:30:03.527Z,121.80
2023-01-08T09:32:17.102Z,152.30
2023-01-08T09:34:18.968Z,99.57
2023-01-08T09:36:20.525Z,76.72
2023-01-08T09:38:22.062Z,83.80
2023-01-08T09:40:28.048Z,27.52
2023-01-08T09:42:30.951Z,33.58
2023-01-08T09:44:46.209Z,20.35
2023-01-08T09:46:54.744Z,32.53
2023-01-08T09:49:25.270Z,30.45
2023-01-08T09:51:38.038Z,43.10
2023-01-08T09:53:44.012Z,31.95
2023-01-08T09:56:15.867Z,34.03
2023-01-08T09:58:37.795Z,33.00
2023-01-08T10:00:39.333Z,45.85
2023-01-08T10:02:41.418Z,42.13
2023-01-08T10:04:56.468Z,26.20
2023-01-08T10:07:15.904Z,36.05
2023-01-08T10:09:26.695Z,38.38
2023-01-08T10:11:41.721Z,66.93
2023-01-08T10:13:54.402Z,44.67
2023-01-08T10:15:56.005Z,40.92
2023-01-08T10:18:25.358Z,30.65
2023-01-08T10:20:27.195Z,27.35
2023-01-08T10:22:33.865Z,29.80
2023-01-08T10:24:39.643Z,30.58
2023-01-08T10:26:41.222Z,18.83
2023-01-08T10:28:42.741Z,32.55
2023-01-08T10:30:47.817Z,59.05
2023-01-08T10:33:13.412Z,18.65
2023-01-08T10:35:42.888Z,20.92
2023-01-08T10:37:46.684Z,11.57
2023-01-08T10:39:49.606Z,32.38
2023-01-08T10:41:53.999Z,11.02
2023-01-08T10:44:00.525Z,37.80
2023-01-08T10:46:03.625Z,19.90
2023-01-08T10:48:07.514Z,20.02
2023-01-08T10:50:26.651Z,19.40
2023-01-08T10:52:33.696Z,84.55
2023-01-08T10:54:40.745Z,12.30
2023-01-08T10:56:44.988Z,90.10
2023-01-08T10:58:46.819Z,16.15
2023-01-08T11:00:48.403Z,12.52
2023-01-08T11:02:50.666Z,29.52
2023-01-08T11:04:52.975Z,56.42
2023-01-08T11:06:59.839Z,33.13
2023-01-08T11:09:27.358Z,26.52
2023-01-08T11:11:36.574Z,30.48
2023-01-08T11:13:41.194Z,20.80
2023-01-08T11:15:43.746Z,13.40
2023-01-08T11:17:45.871Z,17.23
2023-01-08T11:19:47.468Z,19.00
2023-01-08T11:22:19.508Z,19.30
2023-01-08T11:24:30.880Z,23.13
2023-01-08T11:26:34.115Z,22.83
2023-01-08T11:29:05.560Z,20.85
2023-01-08T11:31:15.226Z,17.20
2023-01-08T11:33:23.090Z,26.45
2023-01-08T11:35:31.303Z,24.98
2023-01-08T11:37:39.117Z,20.58
2023-01-08T11:39:40.966Z,20.35
2023-01-08T11:42:01.189Z,19.30
2023-01-08T11:44:24.146Z,19.83
2023-01-08T11:46:42.798Z,18.80
2023-01-08T11:48:56.394Z,21.63
2023-01-08T11:51:19.783Z,20.20
2023-01-08T11:53:38.487Z,42.97
2023-01-08T11:56:10.819Z,19.73
2023-01-08T11:58:44.936Z,30.42
2023-01-08T12:01:09.545Z,30.02
2023-01-08T12:03:35.367Z,19.60
2023-01-08T12:05:47.813Z,21.05
2023-01-08T12:08:01.018Z,25.52
2023-01-08T12:10:14.788Z,19.67
2023-01-08T12:12:53.247Z,19.48
2023-01-08T12:15:01.855Z,19.70
2023-01-08T12:17:30.786Z,19.80
2023-01-08T12:20:10.387Z,18.60
2023-01-08T12:22:39.645Z,20.45
2023-01-08T12:24:59.224Z,21.98
2023-01-08T12:27:56.263Z,18.50
2023-01-08T12:30:15.220Z,27.85
2023-01-08T12:32:38.593Z,19.83
2023-01-08T12:34:52.384Z,18.15
2023-01-08T12:37:15.562Z,21.77
2023-01-08T12:39:37.790Z,19.30
2023-01-08T12:41:40.935Z,17.33
2023-01-08T12:46:05.074Z,14.95
2023-01-08T12:48:28.411Z,18.30
2023-01-08T12:50:51.468Z,17.75
2023-01-08T12:52:59.107Z,17.35
2023-01-08T12:55:13.738Z,15.27
2023-01-08T12:57:33.442Z,20.67
2023-01-08T13:01:54.848Z,20.20
2023-01-08T13:04:01.795Z,17.27
2023-01-08T13:06:15.229Z,16.30
2023-01-08T13:08:36.905Z,15.30
2023-01-08T13:11:00.413Z,24.65
2023-01-08T13:13:03.357Z,18.40
2023-01-08T13:15:07.087Z,13.00
2023-01-08T13:17:18.976Z,10.73
2023-01-08T13:19:29.177Z,12.27
2023-01-08T13:21:35.774Z,12.95
2023-01-08T13:23:38.392Z,12.60
2023-01-08T13:25:55.245Z,12.57
2023-01-08T13:27:57.664Z,11.15
2023-01-08T13:29:59.321Z,12.43
2023-01-08T13:32:12.188Z,11.73
2023-01-08T13:34:37.240Z,12.55
2023-01-08T13:36:42.268Z,15.88
2023-01-08T13:38:45.196Z,15.20
2023-01-08T13:40:50.078Z,18.80
2023-01-08T13:42:52.789Z,27.77
2023-01-08T13:45:14.744Z,19.55
2023-01-08T13:47:25.569Z,24.05
2023-01-08T13:49:33.952Z,14.73
2023-01-08T13:51:38.186Z,14.63
2023-01-08T13:53:42.313Z,20.35
2023-01-08T13:55:54.581Z,20.08
2023-01-08T13:58:03.402Z,20.10
2023-01-08T14:00:09.262Z,19.47
2023-01-08T14:02:34.020Z,33.08
2023-01-08T14:04:35.558Z,55.08
2023-01-08T14:06:37.216Z,25.45
2023-01-08T14:08:59.007Z,22.67
2023-01-08T14:11:00.635Z,21.13
2023-01-08T14:13:08.577Z,27.92
2023-01-08T14:15:29.338Z,27.42
2023-01-08T14:17:32.404Z,23.67
2023-01-08T14:19:33.969Z,25.48
2023-01-08T14:21:43.299Z,25.05
2023-01-08T14:23:47.712Z,25.88
2023-01-08T14:25:50.771Z,35.35
2023-01-08T14:28:01.340Z,128.98
2023-01-08T14:30:15.617Z,105.32
2023-01-08T14:32:20.001Z,70.22
2023-01-08T14:34:23.893Z,53.55
2023-01-08T14:36:26.598Z,60.80
2023-01-08T14:38:39.799Z,55.65
2023-01-08T14:40:45.438Z,68.00
2023-01-08T14:42:47.367Z,49.17
2023-01-08T14:45:16.851Z,49.03
2023-01-08T14:47:19.744Z,44.13
2023-01-08T14:49:34.326Z,114.15
2023-01-08T14:51:35.934Z,63.70
2023-01-08T14:53:38.970Z,51.08
2023-01-08T14:55:46.637Z,45.58
2023-01-08T14:57:51.584Z,39.97
2023-01-08T15:00:01.809Z,43.30
2023-01-08T15:02:05.255Z,58.80
2023-01-08T15:04:14.883Z,56.10
2023-01-08T15:06:30.327Z,48.17
2023-01-08T15:08:37.753Z,68.15
2023-01-08T15:10:42.759Z,144.65
2023-01-08T15:12:44.294Z,61.10
2023-01-08T15:14:45.817Z,54.97
2023-01-08T15:16:47.725Z,113.28
2023-01-08T15:19:14.375Z,51.33
2023-01-08T15:21:21.829Z,158.18
2023-01-08T15:23:35.209Z,468.98
2023-01-08T15:25:36.879Z,146.55
2023-01-08T15:27:39.702Z,68.65
2023-01-08T15:29:49.077Z,53.83
2023-01-08T15:31:50.646Z,56.13
2023-01-08T15:33:52.197Z,58.88
2023-01-08T15:35:53.782Z,92.45
2023-01-08T15:37:55.260Z,78.75
2023-01-08T15:39:56.828Z,72.63
2023-01-08T15:42:29.169Z,102.13
2023-01-08T15:44:30.750Z,60.80
2023-01-08T15:46:32.337Z,61.28
2023-01-08T15:48:33.896Z,63.70
2023-01-08T15:50:38.688Z,72.18
2023-01-08T15:52:41.739Z,94.90
2023-01-08T15:54:43.304Z,141.13
2023-01-08T15:56:44.929Z,97.47
2023-01-08T15:58:47.631Z,97.88
2023-01-08T16:00:49.300Z,153.35
2023-01-08T16:02:52.715Z,108.35
2023-01-08T16:04:55.999Z,107.97
2023-01-08T16:06:57.832Z,219.32
2023-01-08T16:09:00.535Z,118.65
2023-01-08T16:11:02.024Z,92.45
2023-01-08T16:13:03.519Z,106.93
2023-01-08T16:15:08.306Z,65.53
2023-01-08T16:17:10.231Z,86.25
2023-01-08T16:19:11.802Z,129.95
2023-01-08T16:21:13.490Z,194.18
2023-01-08T16:23:14.985Z,129.50
2023-01-08T16:25:16.758Z,156.13
2023-01-08T16:27:18.316Z,189.70
2023-01-08T16:29:20.068Z,150.02
2023-01-08T16:31:21.693Z,458.48
2023-01-08T16:33:23.598Z,429.67
2023-01-08T16:35:25.252Z,376.08
2023-01-08T16:37:26.896Z,418.25
2023-01-08T16:39:28.809Z,207.45
2023-01-08T16:41:30.502Z,114.55
2023-01-08T16:43:39.713Z,127.45
2023-01-08T16:45:46.169Z,94.72
2023-01-08T16:47:47.698Z,93.90
2023-01-08T16:49:50.404Z,117.20
2023-01-08T16:51:51.970Z,114.65
2023-01-08T16:53:53.866Z,192.30
2023-01-08T16:55:59.055Z,350.55
2023-01-08T16:58:00.533Z,131.55
2023-01-08T17:00:02.322Z,72.78
2023-01-08T17:02:03.937Z,90.47
2023-01-08T17:04:05.557Z,109.63
2023-01-08T17:06:10.167Z,146.52
2023-01-08T17:08:15.797Z,87.43
2023-01-08T17:10:17.582Z,126.93
2023-01-08T17:12:22.556Z,112.43
2023-01-08T17:14:24.331Z,124.55
2023-01-08T17:16:26.017Z,94.22
2023-01-08T17:18:27.656Z,95.82
2023-01-08T17:20:29.248Z,251.68
2023-01-08T17:22:30.967Z,102.25
2023-01-08T17:24:32.546Z,165.05
2023-01-08T17:26:34.201Z,143.65
2023-01-08T17:28:36.311Z,133.27
2023-01-08T17:30:37.909Z,146.25
2023-01-08T17:32:39.831Z,140.98
2023-01-08T17:34:41.452Z,130.85
2023-01-08T17:36:43.159Z,93.43
2023-01-08T17:38:46.876Z,87.85
2023-01-08T17:40:48.471Z,101.93
2023-01-08T17:42:50.120Z,145.23
2023-01-08T17:44:51.894Z,97.78
2023-01-08T17:46:53.510Z,79.93
2023-01-08T17:48:55.137Z,62.95
2023-01-08T17:50:56.915Z,59.60
2023-01-08T17:52:58.987Z,63.85
2023-01-08T17:55:00.730Z,67.90
2023-01-08T17:57:02.330Z,71.93
2023-01-08T17:59:04.566Z,71.53
2023-01-08T18:01:10.355Z,64.80
2023-01-08T18:03:12.164Z,69.55
2023-01-08T18:05:13.708Z,70.40
2023-01-08T18:07:15.578Z,76.75
2023-01-08T18:09:17.166Z,81.93
2023-01-08T18:11:18.754Z,83.20
2023-01-08T18:13:20.259Z,85.78
2023-01-08T18:15:21.927Z,81.78
2023-01-08T18:17:23.498Z,79.78
2023-01-08T18:19:26.352Z,101.72
2023-01-08T18:21:28.738Z,230.63
2023-01-08T18:23:30.621Z,256.83
2023-01-08T18:25:32.085Z,202.07
2023-01-08T18:27:34.691Z,339.23
2023-01-08T18:29:36.398Z,326.85
2023-01-08T18:31:38.252Z,355.88
2023-01-08T18:33:40.836Z,325.88
2023-01-08T18:35:42.406Z,265.23
2023-01-08T18:37:43.933Z,190.25
2023-01-08T18:39:45.519Z,130.90
2023-01-08T18:42:05.781Z,111.03
2023-01-08T18:44:09.125Z,160.95
2023-01-08T18:46:10.666Z,122.68
2023-01-08T18:48:12.220Z,112.93
2023-01-08T18:50:13.908Z,100.43
2023-01-08T18:52:16.103Z,97.45
2023-01-08T18:54:17.817Z,107.57
2023-01-08T18:56:26.821Z,281.83
2023-01-08T18:58:29.092Z,211.05
2023-01-08T19:00:30.825Z,131.23
2023-01-08T19:02:35.312Z,109.93
2023-01-08T19:04:36.981Z,107.80
2023-01-08T19:06:38.698Z,111.45
2023-01-08T19:08:41.283Z,114.03
2023-01-08T19:10:42.824Z,138.27
2023-01-08T19:12:44.703Z,144.45
2023-01-08T19:14:47.148Z,107.65
2023-01-08T19:16:51.398Z,116.47
2023-01-08T19:18:53.341Z,96.45
2023-01-08T19:20:56.251Z,98.65
2023-01-08T19:22:57.920Z,94.72
2023-01-08T19:24:59.673Z,238.07
2023-01-08T19:27:01.201Z,121.32
2023-01-08T19:29:04.903Z,93.00
2023-01-08T19:31:06.681Z,96.18
2023-01-08T19:33:08.621Z,158.70
2023-01-08T19:35:10.142Z,269.52
2023-01-08T19:37:13.799Z,190.40
2023-01-08T19:39:15.512Z,240.45
2023-01-08T19:41:35.966Z,170.85
2023-01-08T19:43:43.285Z,136.23
2023-01-08T19:45:45.146Z,162.98
2023-01-08T19:47:46.957Z,285.58
2023-01-08T19:49:49.181Z,316.75
2023-01-08T19:51:51.353Z,334.63
2023-01-08T19:53:54.053Z,166.30
2023-01-08T19:55:55.618Z,128.60
2023-01-08T19:57:57.522Z,201.23
2023-01-08T19:59:59.074Z,221.05
2023-01-08T20:02:00.807Z,232.52
2023-01-08T20:04:04.196Z,175.10
2023-01-08T20:06:08.229Z,161.57
2023-01-08T20:08:09.938Z,150.18
2023-01-08T20:10:12.485Z,155.35
2023-01-08T20:12:15.008Z,197.30
2023-01-08T20:14:16.601Z,156.07
2023-01-08T20:16:20.605Z,174.55
2023-01-08T20:18:22.179Z,127.72
2023-01-08T20:20:23.767Z,116.35
2023-01-08T20:22:25.649Z,107.70
2023-01-08T20:24:27.893Z,118.30
2023-01-08T20:26:31.729Z,279.70
2023-01-08T20:28:34.704Z,209.70
2023-01-08T20:30:36.248Z,179.38
2023-01-08T20:32:37.747Z,208.32
2023-01-08T20:34:39.422Z,198.55
2023-01-08T20:36:41.870Z,148.38
2023-01-08T20:38:44.593Z,326.00
2023-01-08T20:40:46.352Z,149.82
2023-01-08T20:42:47.947Z,152.48
2023-01-08T20:44:49.639Z,147.77
2023-01-08T20:46:51.220Z,202.60
2023-01-08T20:48:52.686Z,218.10
2023-01-08T20:50:59.629Z,231.93
2023-01-08T20:53:01.450Z,200.30
2023-01-08T20:55:03.102Z,131.07
2023-01-08T20:57:04.723Z,106.72
2023-01-08T20:59:06.270Z,114.55
2023-01-08T21:01:10.373Z,114.28
2023-01-08T21:03:12.612Z,103.45
2023-01-08T21:05:14.191Z,110.25
2023-01-08T21:07:16.013Z,104.07
2023-01-08T21:09:18.151Z,105.85
2023-01-08T21:11:20.520Z,124.72
2023-01-08T21:13:22.331Z,112.60
2023-01-08T21:15:24.230Z,114.38
2023-01-08T21:17:25.842Z,117.43
2023-01-08T21:19:27.410Z,171.05
2023-01-08T21:21:34.472Z,167.52
2023-01-08T21:23:35.951Z,149.77
2023-01-08T21:25:37.496Z,140.32
2023-01-08T21:27:39.127Z,106.82
2023-01-08T21:29:40.707Z,104.57
2023-01-08T21:31:43.353Z,82.78
2023-01-08T21:33:48.747Z,82.43
2023-01-08T21:35:50.432Z,80.18
2023-01-08T21:37:52.210Z,77.95
2023-01-08T21:39:53.845Z,87.60
2023-01-08T21:42:13.574Z,83.60
2023-01-08T21:44:39.232Z,114.18
2023-01-08T21:46:40.832Z,206.13
2023-01-08T21:48:43.515Z,137.32
2023-01-08T21:50:45.019Z,263.38
2023-01-08T21:53:05.330Z,247.18
2023-01-08T21:55:07.144Z,195.77
2023-01-08T21:57:09.574Z,119.88
2023-01-08T21:59:11.435Z,120.85
2023-01-08T22:01:13.590Z,203.68
2023-01-08T22:03:15.295Z,135.25
2023-01-08T22:05:16.937Z,131.10
2023-01-08T22:07:18.501Z,134.50
2023-01-08T22:09:20.244Z,146.85
2023-01-08T22:11:21.802Z,187.43
2023-01-08T22:13:23.318Z,173.68
2023-01-08T22:15:24.842Z,163.35
2023-01-08T22:17:29.700Z,114.22
2023-01-08T22:19:31.414Z,139.65
2023-01-08T22:21:32.934Z,134.02
2023-01-08T22:23:35.252Z,95.72
2023-01-08T22:25:40.864Z,95.20
2023-01-08T22:27:42.396Z,162.73
2023-01-08T22:29:43.939Z,129.32
2023-01-08T22:31:45.699Z,113.18
2023-01-08T22:33:47.260Z,108.82
2023-01-08T22:35:48.765Z,94.22
2023-01-08T22:37:50.320Z,90.30
2023-01-08T22:39:51.911Z,94.13
2023-01-08T22:41:53.428Z,85.70
2023-01-08T22:43:56.838Z,87.38
2023-01-08T22:45:59.931Z,85.03
2023-01-08T22:48:01.484Z,84.88
2023-01-08T22:50:03.256Z,80.25
2023-01-08T22:52:05.149Z,86.72
2023-01-08T22:54:06.980Z,179.60
2023-01-08T22:56:12.238Z,149.82
2023-01-08T22:58:15.341Z,121.57
2023-01-08T23:00:17.292Z,107.75
2023-01-08T23:02:24.324Z,112.38
2023-01-08T23:04:26.138Z,104.00
2023-01-08T23:06:30.249Z,132.25
2023-01-08T23:08:31.773Z,88.15
2023-01-08T23:10:33.683Z,92.55
2023-01-08T23:12:35.501Z,115.95
2023-01-08T23:14:37.203Z,143.80
2023-01-08T23:16:38.947Z,110.45
2023-01-08T23:18:41.673Z,107.68
2023-01-08T23:20:43.222Z,229.75
2023-01-08T23:22:45.986Z,254.30
2023-01-08T23:24:47.496Z,117.68
2023-01-08T23:26:49.093Z,110.20
2023-01-08T23:28:51.747Z,120.57
2023-01-08T23:30:53.271Z,103.15
2023-01-08T23:32:54.770Z,111.43
2023-01-08T23:34:56.321Z,92.47
2023-01-08T23:36:57.843Z,96.22
2023-01-08T23:38:59.816Z,108.40
2023-01-08T23:41:04.795Z,109.63
2023-01-08T23:43:06.309Z,98.75
2023-01-08T23:45:10.518Z,103.20
2023-01-08T23:47:12.817Z,99.63
2023-01-08T23:49:14.309Z,107.22
2023-01-08T23:51:15.785Z,93.07
2023-01-08T23:53:17.344Z,94.05
2023-01-08T23:55:19.145Z,90.30
2023-01-08T23:57:20.675Z,89.80
2023-01-08T23:59:22.258Z,96.40
